Etusivu
METAR-TAF:

METAR-TAF

Lentoasemat :

Pickle Lake, Ontario, Kanada

Leveyspiiri: 51-27N, Pituuspiiri: 090-12W, korkeus merenpinnasta: 386 m

Tämänhetkinen sää

Tämä raportti tehtiin 27 minuuttia sitten, kello 02.00 UTC
Tuuli 7 kn lännestä
Lämpötila -4°C
Kosteus 68%
Ilmanpaine 1018 hPa
Näkyvyys: 14.5 km
selkeää

METAR: CYPL 050200Z AUTO 26007KT 9SM CLR M04/M09 A3007 RMK SLP214

Aika: 21:27 (02:27 UTC)

Sääennuste

Tämä raportti tehtiin 49 minuuttia sitten, kello 01.38 UTC
Ennuste voimassa 05. päivästä klo 02 UTC - 05. päivään klo 14 UTC
Tuuli 6 kn lännestä
Näkyvyys: 10 km
Muutamia pilviä 3000 ft:n korkeudessa

TAF: CYPL 050138Z 0502/0514 27006KT P6SM FEW030 RMK FCST BASED ON AUTO OBS. NXT FCST BY 050800Z

Säähavainnot ja -ennusteet yli 4000 lentoasemalta (METAR- ja TAF-raportit).

Käytössä olevat sääasemat on merkitty karttaan keltaisilla ja punaisilla pisteillä.

Aseta hiiri pisteen päälle nähdäksesi sääaseman nimen.

Klikkaa sitten nähdäksesi säähavainnot ja -ennusteet.

Kartan vaihtaminen: klikkaa mustalla rastilla varustettuja vihreitä pisteitä, niin voit zoomata sisään; viivalla varustettua vihreää pistettä, niin voit zoomata ulos tai vihreitä nuolia, niin pääset viereisille kartoille.


METAR-TAF: